Sunday, October 21, 2018, 9:22 PM EDT
Back to Local

KBVY, Beverly Municipal Airport

Location: Danvers, MA, United States Lat: 42.583
Local Time: 9:22 PM EDT ( 1:22 GMT) Lon: -70.917
Time Zone: US/Eastern Elev: 108 ft

Show me the last for .
Show Decoded

2018-10-21 20:53 METAR KBVY 220053Z 31011G21KT 10SM CLR 03/M07 A3001 RMK AO2 SLP160 T00331072 =
2018-10-21 19:53 METAR KBVY 212353Z 31009KT 10SM CLR 02/M07 A2999 RMK AO2 SLP151 T00221067 10072
                 20017 51040 =
2018-10-21 18:53 METAR KBVY 212253Z 32011G18KT 10SM CLR 03/M07 A2996 RMK AO2 PK WND 34027/2222
                 SLP142 T00331072 =
2018-10-21 17:53 METAR KBVY 212153Z 33011KT 10SM CLR 04/M06 A2991 RMK AO2 PK WND 33028/2105
                 SLP124 T00391061 =
2018-10-21 16:53 METAR KBVY 212053Z 33016G28KT 10SM CLR 05/M06 A2987 RMK AO2 PK WND 32028/2044
                 SLP111 T00501056 53027 =
2018-10-21 15:53 METAR KBVY 211953Z 33018G27KT 10SM FEW047 06/M05 A2983 RMK AO2 PK WND 31034/1920
                 SLP098 T00611050 =
2018-10-21 14:53 METAR KBVY 211853Z 32022G32KT 10SM BKN044 07/M04 A2981 RMK AO2 PK WND 30032/1828
                 SLP092 T00671044 =
2018-10-21 13:53 METAR KBVY 211753Z 31018G29KT 10SM BKN044 07/M04 A2979 RMK AO2 PK WND 33031/1722
                 SLP084 60002 T00671039 10083 20061 53010 =
2018-10-21 12:53 METAR KBVY 211653Z 32021G28KT 10SM FEW044 08/M03 A2978 RMK AO2 PK WND 34031/1642
                 SLP080 T00781033 =
2018-10-21 11:53 METAR KBVY 211553Z 32015G26KT 10SM FEW039 07/M02 A2977 RMK AO2 PK WND 32028/1511
                 SLP078 T00721022 =
2018-10-21 10:53 METAR KBVY 211453Z 33020G33KT 10SM BKN110 07/M02 A2976 RMK AO2 PK WND 31033/1449
                 SLP074 60002 T00671017 51021 =
2018-10-21 09:53 METAR KBVY 211353Z 33012G18KT 10SM OVC075 07/01 A2974 RMK AO2 SLP067 T00720006 =
2018-10-21 08:53 METAR KBVY 211253Z 01007KT 10SM BKN036 OVC049 06/01 A2973 RMK AO2 PK WND
                 01027/1214 RAE52 SLP063 P0002 T00610011 =
2018-10-21 08:46 METAR KBVY 211246Z 36009KT 10SM -RA BKN032 OVC049 06/01 A2973 RMK AO2 PK WND
                 01027/1214 P0002 T00610011 =
2018-10-21 08:35 METAR KBVY 211235Z 36008G18KT 10SM -RA OVC028 06/01 A2973 RMK AO2 PK WND
                 01027/1214 P0002 T00610011 =
2018-10-21 07:53 METAR KBVY 211153Z 36014G26KT 10SM -RA OVC047 07/00 A2970 RMK AO2 PK WND
                 32026/1144 SLP053 P0000 60000 T00720000 10089 20067 53038 =
2018-10-21 06:53 METAR KBVY 211053Z 32006KT 10SM -RA OVC041 08/02 A2965 RMK AO2 RAB29 SLP036
                 P0000 T00780022 =
2018-10-21 05:53 METAR KBVY 210953Z AUTO 34007KT 10SM OVC080 08/02 A2961 RMK AO2 SLP022 T00830022
                 =
2018-10-21 04:53 METAR KBVY 210853Z AUTO 35007KT 10SM OVC080 08/02 A2959 RMK AO2 SLP014 T00830022
                 53006 =
2018-10-21 03:53 METAR KBVY 210753Z AUTO 33009KT 10SM FEW080 SCT120 08/03 A2956 RMK AO2 SLP004
                 T00780033 =
2018-10-21 02:53 METAR KBVY 210653Z AUTO 32003KT 10SM SCT100 08/05 A2955 RMK AO2 SLP001 T00780050
                 =
2018-10-21 01:53 METAR KBVY 210553Z AUTO 30003KT 10SM OVC090 08/06 A2957 RMK AO2 SLP008 T00830056
                 10111 20056 56003 =
2018-10-21 00:53 METAR KBVY 210453Z AUTO 00000KT 10SM BKN095 06/04 A2957 RMK AO2 SLP008 T00610044
                 401780056 =
2018-10-20 23:53 METAR KBVY 210353Z AUTO 00000KT 10SM CLR 08/05 A2957 RMK AO2 SLP010 T00780050 =
2018-10-20 22:53 METAR KBVY 210253Z AUTO 00000KT 10SM CLR 08/04 A2958 RMK AO2 SLP011 T00830044
                 53004 =
2018-10-20 21:53 METAR KBVY 210153Z AUTO 26005KT 10SM CLR 10/05 A2957 RMK AO2 SLP007 T01000050 =

Support USWX by starting your Amazon purchase here.